createdAt,value
2023-03-28T00:00:12.094Z,82.59
2023-03-28T00:02:15.464Z,82.75
2023-03-28T00:04:22.800Z,82.74
2023-03-28T00:06:26.473Z,83.48
2023-03-28T00:08:29.995Z,83.61
2023-03-28T00:10:33.064Z,83.46
2023-03-28T00:12:36.632Z,83.50
2023-03-28T00:14:39.770Z,83.46
2023-03-28T00:16:46.798Z,83.12
2023-03-28T00:18:51.029Z,83.23
2023-03-28T00:20:54.184Z,83.42
2023-03-28T00:22:57.243Z,83.15
2023-03-28T00:25:03.037Z,83.95
2023-03-28T00:27:07.154Z,83.41
2023-03-28T00:29:11.297Z,84.30
2023-03-28T00:31:14.728Z,84.05
2023-03-28T00:33:19.417Z,83.56
2023-03-28T00:35:22.533Z,84.10
2023-03-28T00:37:27.002Z,83.89
2023-03-28T00:39:31.308Z,83.60
2023-03-28T00:41:36.150Z,84.19
2023-03-28T00:43:41.994Z,84.05
2023-03-28T00:45:47.264Z,84.46
2023-03-28T00:47:57.531Z,84.02
2023-03-28T00:50:10.901Z,84.03
2023-03-28T00:52:15.471Z,83.56
2023-03-28T00:54:20.783Z,84.25
2023-03-28T00:56:25.072Z,84.32
2023-03-28T00:58:30.625Z,84.21
2023-03-28T01:00:34.898Z,84.23
2023-03-28T01:02:40.223Z,84.10
2023-03-28T01:04:49.886Z,84.92
2023-03-28T01:06:59.873Z,85.03
2023-03-28T01:09:06.604Z,84.75
2023-03-28T01:11:10.619Z,84.37
2023-03-28T01:13:14.911Z,84.75
2023-03-28T01:15:18.509Z,84.39
2023-03-28T01:17:28.032Z,84.03
2023-03-28T01:19:45.541Z,84.59
2023-03-28T01:22:11.182Z,84.12
2023-03-28T01:24:43.971Z,84.39
2023-03-28T01:26:50.929Z,84.56
2023-03-28T01:29:15.802Z,84.16
2023-03-28T01:31:48.428Z,83.82
2023-03-28T01:34:35.009Z,83.46
2023-03-28T01:37:03.610Z,83.56
2023-03-28T01:39:19.469Z,83.79
2023-03-28T01:41:27.869Z,83.96
2023-03-28T01:43:35.742Z,84.61
2023-03-28T01:45:46.259Z,84.74
2023-03-28T01:47:53.475Z,84.75
2023-03-28T01:50:02.394Z,84.87
2023-03-28T01:52:11.513Z,84.82
2023-03-28T01:54:21.394Z,85.15
2023-03-28T01:56:30.756Z,85.05
2023-03-28T01:58:43.553Z,85.01
2023-03-28T02:00:57.104Z,84.57
2023-03-28T02:03:04.160Z,84.72
2023-03-28T02:05:15.424Z,84.98
2023-03-28T02:07:22.076Z,84.78
2023-03-28T02:09:58.454Z,84.98
2023-03-28T02:12:30.991Z,84.28
2023-03-28T02:14:42.429Z,84.61
2023-03-28T02:17:15.586Z,84.75
2023-03-28T02:19:38.876Z,85.60
2023-03-28T02:21:51.489Z,85.25
2023-03-28T02:24:25.956Z,85.33
2023-03-28T02:26:41.967Z,85.44
2023-03-28T02:29:04.018Z,86.03
2023-03-28T02:31:14.669Z,85.54
2023-03-28T02:33:39.231Z,85.80
2023-03-28T02:35:55.480Z,85.83
2023-03-28T02:38:04.282Z,85.87
2023-03-28T02:40:26.477Z,85.70
2023-03-28T02:42:43.477Z,85.16
2023-03-28T02:45:05.782Z,84.79
2023-03-28T02:47:16.251Z,84.65
2023-03-28T02:49:33.045Z,84.52
2023-03-28T02:51:46.518Z,84.09
2023-03-28T02:53:54.623Z,84.08
2023-03-28T02:56:04.988Z,84.88
2023-03-28T02:58:37.946Z,85.50
2023-03-28T03:00:41.181Z,85.88
2023-03-28T03:02:45.108Z,86.28
2023-03-28T03:04:50.358Z,86.23
2023-03-28T03:06:53.504Z,86.07
2023-03-28T03:08:56.845Z,86.27
2023-03-28T03:11:01.568Z,86.63
2023-03-28T03:13:04.715Z,85.88
2023-03-28T03:15:08.987Z,85.46
2023-03-28T03:17:21.123Z,85.53
2023-03-28T03:19:24.843Z,85.47
2023-03-28T03:21:28.197Z,85.40
2023-03-28T03:23:31.276Z,86.09
2023-03-28T03:25:36.226Z,85.85
2023-03-28T03:27:50.596Z,84.93
2023-03-28T03:29:55.502Z,85.54
2023-03-28T03:32:03.034Z,85.93
2023-03-28T03:34:16.513Z,85.99
2023-03-28T03:36:27.087Z,85.59
2023-03-28T03:38:30.320Z,85.35
2023-03-28T03:40:33.942Z,85.80
2023-03-28T03:42:37.670Z,85.30
2023-03-28T03:44:42.995Z,84.76
2023-03-28T03:46:46.535Z,84.22
2023-03-28T03:48:50.549Z,83.80
2023-03-28T03:50:54.560Z,83.79
2023-03-28T03:52:58.732Z,83.76
2023-03-28T03:55:10.226Z,84.06
2023-03-28T03:57:15.512Z,83.90
2023-03-28T03:59:19.476Z,83.85
2023-03-28T04:01:25.929Z,83.64
2023-03-28T04:03:31.000Z,83.36
2023-03-28T04:05:34.084Z,83.30
2023-03-28T04:07:39.749Z,83.53
2023-03-28T04:09:48.229Z,82.91
2023-03-28T04:11:51.485Z,82.77
2023-03-28T04:13:54.496Z,82.45
2023-03-28T04:15:58.021Z,82.06
2023-03-28T04:18:11.216Z,82.33
2023-03-28T04:20:19.874Z,82.85
2023-03-28T04:22:36.931Z,83.79
2023-03-28T04:24:49.885Z,83.99
2023-03-28T04:26:59.729Z,84.81
2023-03-28T04:29:05.707Z,85.17
2023-03-28T04:31:12.225Z,84.52
2023-03-28T04:33:35.565Z,85.86
2023-03-28T04:35:40.914Z,85.00
2023-03-28T04:37:44.433Z,84.48
2023-03-28T04:39:48.163Z,85.03
2023-03-28T04:42:05.262Z,84.30
2023-03-28T04:44:26.832Z,83.64
2023-03-28T04:46:35.101Z,84.20
2023-03-28T04:48:47.996Z,84.45
2023-03-28T04:51:01.395Z,83.67
2023-03-28T04:53:04.510Z,83.28
2023-03-28T04:55:10.283Z,83.78
2023-03-28T04:57:14.204Z,84.29
2023-03-28T04:59:23.389Z,84.42
2023-03-28T05:01:27.611Z,84.27
2023-03-28T05:04:04.461Z,84.46
2023-03-28T05:06:08.652Z,84.64
2023-03-28T05:08:12.872Z,84.82
2023-03-28T05:10:16.558Z,85.11
2023-03-28T05:12:20.044Z,84.54
2023-03-28T05:14:40.600Z,84.45
2023-03-28T05:16:49.268Z,84.18
2023-03-28T05:19:12.292Z,84.29
2023-03-28T05:21:34.221Z,84.62
2023-03-28T05:23:37.566Z,85.18
2023-03-28T05:25:51.928Z,85.06
2023-03-28T05:27:55.306Z,85.50
2023-03-28T05:29:58.734Z,86.14
2023-03-28T05:32:02.001Z,85.20
2023-03-28T05:34:07.040Z,85.14
2023-03-28T05:36:19.161Z,84.32
2023-03-28T05:38:23.150Z,84.30
2023-03-28T05:40:30.921Z,83.84
2023-03-28T05:42:34.414Z,83.61
2023-03-28T05:44:44.553Z,83.58
2023-03-28T05:47:07.043Z,82.64
2023-03-28T05:49:11.844Z,82.30
2023-03-28T05:51:16.967Z,82.37
2023-03-28T05:53:21.562Z,81.33
2023-03-28T05:55:25.918Z,81.25
2023-03-28T05:57:29.092Z,80.92
2023-03-28T05:59:32.994Z,79.92
2023-03-28T06:01:37.137Z,79.88
2023-03-28T06:03:45.586Z,79.55
2023-03-28T06:05:49.327Z,79.63
2023-03-28T06:07:56.465Z,78.77
2023-03-28T06:10:01.934Z,77.85
2023-03-28T06:12:07.540Z,78.16
2023-03-28T06:14:13.429Z,78.49
2023-03-28T06:16:17.036Z,78.15
2023-03-28T06:18:20.285Z,78.43
2023-03-28T06:20:25.632Z,76.59
2023-03-28T06:22:32.063Z,77.23
2023-03-28T06:24:41.872Z,77.26
2023-03-28T06:26:46.701Z,75.75
2023-03-28T06:28:54.131Z,76.11
2023-03-28T06:31:00.538Z,74.90
2023-03-28T06:33:04.267Z,74.40
2023-03-28T06:35:08.783Z,74.51
2023-03-28T06:37:11.918Z,74.10
2023-03-28T06:39:27.803Z,74.63
2023-03-28T06:41:33.975Z,74.93
2023-03-28T06:43:38.450Z,75.91
2023-03-28T06:45:45.512Z,74.82
2023-03-28T06:47:51.743Z,75.05
2023-03-28T06:50:00.621Z,74.35
2023-03-28T06:52:24.090Z,71.96
2023-03-28T06:54:29.458Z,73.32
2023-03-28T06:56:34.822Z,71.62
2023-03-28T06:58:40.303Z,71.88
2023-03-28T07:00:46.751Z,70.93
2023-03-28T07:03:07.844Z,72.51
2023-03-28T07:05:13.691Z,73.92
2023-03-28T07:07:16.814Z,72.38
2023-03-28T07:09:20.329Z,72.58
2023-03-28T07:11:29.395Z,73.45
2023-03-28T07:13:32.493Z,72.92
2023-03-28T07:15:41.756Z,71.86
2023-03-28T07:17:44.975Z,71.40
2023-03-28T07:19:51.159Z,72.11
2023-03-28T07:21:54.440Z,70.65
2023-03-28T07:23:59.486Z,70.58
2023-03-28T07:26:09.729Z,71.80
2023-03-28T07:28:12.772Z,70.18
2023-03-28T07:30:16.439Z,69.27
2023-03-28T07:32:21.015Z,67.18
2023-03-28T07:34:24.149Z,70.94
2023-03-28T07:36:28.738Z,69.59
2023-03-28T07:38:38.242Z,67.53
2023-03-28T07:40:41.606Z,68.99
2023-03-28T07:42:44.731Z,70.22
2023-03-28T07:44:47.795Z,67.96
2023-03-28T07:46:52.936Z,68.47
2023-03-28T07:48:57.420Z,66.28
2023-03-28T07:51:01.456Z,66.86
2023-03-28T07:53:04.736Z,65.62
2023-03-28T07:55:11.288Z,65.44
2023-03-28T07:57:17.877Z,65.75
2023-03-28T07:59:39.626Z,67.89
2023-03-28T08:01:44.062Z,67.56
2023-03-28T08:03:47.271Z,69.77
2023-03-28T08:05:52.546Z,66.61
2023-03-28T08:07:58.613Z,67.45
2023-03-28T08:10:02.192Z,66.45
2023-03-28T08:12:07.814Z,65.71
2023-03-28T08:14:13.774Z,66.34
2023-03-28T08:16:16.928Z,65.28
2023-03-28T08:18:20.984Z,64.81
2023-03-28T08:20:24.745Z,64.91
2023-03-28T08:22:50.044Z,65.01
2023-03-28T08:25:15.765Z,67.09
2023-03-28T08:27:21.031Z,63.99
2023-03-28T08:29:27.479Z,63.99
2023-03-28T08:31:30.756Z,64.16
2023-03-28T08:33:48.564Z,63.00
2023-03-28T08:35:52.639Z,63.68
2023-03-28T08:37:58.854Z,62.44
2023-03-28T08:40:08.809Z,61.12
2023-03-28T08:42:39.949Z,61.06
2023-03-28T08:44:52.802Z,60.35
2023-03-28T08:46:58.900Z,63.69
2023-03-28T08:49:06.519Z,66.03
2023-03-28T08:51:16.973Z,62.40
2023-03-28T08:53:27.557Z,63.71
2023-03-28T08:55:32.722Z,63.91
2023-03-28T08:57:37.333Z,61.35
2023-03-28T08:59:44.338Z,60.59
2023-03-28T09:01:47.966Z,63.45
2023-03-28T09:03:51.647Z,63.51
2023-03-28T09:06:04.875Z,59.60
2023-03-28T09:08:21.913Z,60.91
2023-03-28T09:10:33.153Z,60.06
2023-03-28T09:12:53.675Z,59.19
2023-03-28T09:15:08.098Z,61.10
2023-03-28T09:17:14.962Z,60.82
2023-03-28T09:19:40.689Z,60.83
2023-03-28T09:22:26.715Z,60.61
2023-03-28T09:24:41.551Z,59.50
2023-03-28T09:26:55.224Z,60.61
2023-03-28T09:29:02.777Z,60.27
2023-03-28T09:31:09.151Z,60.63
2023-03-28T09:33:16.095Z,59.61
2023-03-28T09:35:21.351Z,59.24
2023-03-28T09:37:39.542Z,58.03
2023-03-28T09:39:49.136Z,58.87
2023-03-28T09:41:59.713Z,59.92
2023-03-28T09:44:25.332Z,59.93
2023-03-28T09:46:57.720Z,62.64
2023-03-28T09:49:21.424Z,62.01
2023-03-28T09:51:29.887Z,62.32
2023-03-28T09:53:34.529Z,60.67
2023-03-28T09:55:37.787Z,58.61
2023-03-28T09:58:02.585Z,60.27
2023-03-28T10:00:08.637Z,63.00
2023-03-28T10:02:27.512Z,61.66
2023-03-28T10:04:36.926Z,62.41
2023-03-28T10:06:52.383Z,60.66
2023-03-28T10:09:16.425Z,61.62
2023-03-28T10:11:29.785Z,60.65
2023-03-28T10:13:42.810Z,61.04
2023-03-28T10:15:47.265Z,57.50
2023-03-28T10:17:53.473Z,60.43
2023-03-28T10:20:06.357Z,56.18
2023-03-28T10:22:15.518Z,56.11
2023-03-28T10:24:23.765Z,59.51
2023-03-28T10:26:32.149Z,57.14
2023-03-28T10:28:38.349Z,57.93
2023-03-28T10:30:42.981Z,57.91
2023-03-28T10:33:08.962Z,57.90
2023-03-28T10:35:31.450Z,57.86
2023-03-28T10:37:57.984Z,57.14
2023-03-28T10:40:26.443Z,57.50
2023-03-28T10:43:01.963Z,54.25
2023-03-28T10:45:21.679Z,55.92
2023-03-28T10:47:27.259Z,54.53
2023-03-28T10:49:42.799Z,54.26
2023-03-28T10:51:46.901Z,56.51
2023-03-28T10:54:11.331Z,54.28
2023-03-28T10:56:23.115Z,58.36
2023-03-28T10:58:32.254Z,59.18
2023-03-28T11:00:42.298Z,59.40
2023-03-28T11:02:57.672Z,54.76
2023-03-28T11:05:15.569Z,52.14
2023-03-28T11:07:23.857Z,53.10
2023-03-28T11:09:41.242Z,55.62
2023-03-28T11:12:26.500Z,56.72
2023-03-28T11:14:41.353Z,57.37
2023-03-28T11:16:50.827Z,56.24
2023-03-28T11:19:08.962Z,58.24
2023-03-28T11:21:24.377Z,55.11
2023-03-28T11:23:38.941Z,54.29
2023-03-28T11:26:09.618Z,53.67
2023-03-28T11:28:40.930Z,55.84
2023-03-28T11:30:56.134Z,52.72
2023-03-28T11:33:14.128Z,55.94
2023-03-28T11:35:23.477Z,54.33
2023-03-28T11:37:29.102Z,53.85
2023-03-28T11:39:37.302Z,53.96
2023-03-28T11:41:42.103Z,52.77
2023-03-28T11:43:54.037Z,54.02
2023-03-28T11:46:00.705Z,55.17
2023-03-28T11:48:08.071Z,53.55
2023-03-28T11:50:19.854Z,53.06
2023-03-28T11:52:38.727Z,55.54
2023-03-28T11:54:47.558Z,55.46
2023-03-28T11:56:54.303Z,55.46
2023-03-28T11:59:15.831Z,55.90
2023-03-28T12:01:23.057Z,56.47
2023-03-28T12:03:29.333Z,54.89
2023-03-28T12:05:38.710Z,54.24
2023-03-28T12:07:45.690Z,53.64
2023-03-28T12:10:07.574Z,53.41
2023-03-28T12:12:14.505Z,55.31
2023-03-28T12:14:29.436Z,55.05
2023-03-28T12:16:42.162Z,53.24
2023-03-28T12:18:50.857Z,50.88
2023-03-28T12:21:36.990Z,52.51
2023-03-28T12:23:47.302Z,55.94
2023-03-28T12:26:21.362Z,54.53
2023-03-28T12:28:30.510Z,54.30
2023-03-28T12:30:37.058Z,51.96
2023-03-28T12:32:46.689Z,52.68
2023-03-28T12:34:58.889Z,54.80
2023-03-28T12:37:17.914Z,55.19
2023-03-28T12:39:34.945Z,54.39
2023-03-28T12:41:42.144Z,56.61
2023-03-28T12:43:48.192Z,55.13
2023-03-28T12:46:00.514Z,55.38
2023-03-28T12:48:07.385Z,56.31
2023-03-28T12:50:17.706Z,56.68
2023-03-28T12:52:25.917Z,53.42
2023-03-28T12:54:34.151Z,55.97
2023-03-28T12:56:40.610Z,54.37
2023-03-28T12:58:46.709Z,56.10
2023-03-28T13:01:36.359Z,53.01
2023-03-28T13:03:51.315Z,52.42
2023-03-28T13:06:03.916Z,51.79
2023-03-28T13:08:15.820Z,55.57
2023-03-28T13:10:24.123Z,55.11
2023-03-28T13:12:48.885Z,53.62
2023-03-28T13:14:59.873Z,56.63
2023-03-28T13:17:05.946Z,54.54
2023-03-28T13:19:11.297Z,55.61
2023-03-28T13:21:14.591Z,54.08
2023-03-28T13:23:21.230Z,55.78
2023-03-28T13:25:27.313Z,53.72
2023-03-28T13:27:32.749Z,54.79
2023-03-28T13:29:47.418Z,51.72
2023-03-28T13:31:51.128Z,51.93
2023-03-28T13:33:58.669Z,54.31
2023-03-28T13:36:20.547Z,53.42
2023-03-28T13:38:33.208Z,51.77
2023-03-28T13:40:48.446Z,55.20
2023-03-28T13:42:58.623Z,55.88
2023-03-28T13:45:05.288Z,55.05
2023-03-28T13:47:14.983Z,54.15
2023-03-28T13:49:19.827Z,54.18
2023-03-28T13:51:26.322Z,55.70
2023-03-28T13:53:44.663Z,53.82
2023-03-28T13:56:08.020Z,53.87
2023-03-28T13:58:13.345Z,54.18
2023-03-28T14:00:17.880Z,53.35
2023-03-28T14:02:22.912Z,54.39
2023-03-28T14:04:27.467Z,52.99
2023-03-28T14:06:31.638Z,53.49
2023-03-28T14:08:36.193Z,53.75
2023-03-28T14:10:43.274Z,53.51
2023-03-28T14:12:46.611Z,53.91
2023-03-28T14:14:51.458Z,55.39
2023-03-28T14:16:54.948Z,55.34
2023-03-28T14:18:58.249Z,54.46
2023-03-28T14:21:01.961Z,53.22
2023-03-28T14:23:06.541Z,52.13
2023-03-28T14:25:14.684Z,52.88
2023-03-28T14:27:29.049Z,53.38
2023-03-28T14:29:32.099Z,53.02
2023-03-28T14:31:38.384Z,54.11
2023-03-28T14:33:41.960Z,53.17
2023-03-28T14:35:58.278Z,52.40
2023-03-28T14:38:02.919Z,52.57
2023-03-28T14:40:20.449Z,53.78
2023-03-28T14:42:24.381Z,52.86
2023-03-28T14:44:27.784Z,53.37
2023-03-28T14:46:33.902Z,53.14
2023-03-28T14:48:38.244Z,53.03
2023-03-28T14:50:42.132Z,52.32
2023-03-28T14:52:45.320Z,50.76
2023-03-28T14:54:49.223Z,51.16
2023-03-28T14:56:53.832Z,50.39
2023-03-28T14:59:01.249Z,50.16
2023-03-28T15:01:05.634Z,51.87
2023-03-28T15:03:13.274Z,51.93
2023-03-28T15:05:18.976Z,51.96
2023-03-28T15:07:24.306Z,53.36
2023-03-28T15:09:31.210Z,51.03
2023-03-28T15:11:35.590Z,52.29
2023-03-28T15:13:41.154Z,50.92
2023-03-28T15:15:46.121Z,50.62
2023-03-28T15:17:50.863Z,52.72
2023-03-28T15:19:58.301Z,52.94
2023-03-28T15:22:04.274Z,53.00
2023-03-28T15:24:11.340Z,50.77
2023-03-28T15:26:21.290Z,49.96
2023-03-28T15:28:28.121Z,49.67
2023-03-28T15:30:35.760Z,50.38
2023-03-28T15:32:38.908Z,50.13
2023-03-28T15:34:46.963Z,51.56
2023-03-28T15:36:54.214Z,52.04
2023-03-28T15:39:01.093Z,51.41
2023-03-28T15:41:12.892Z,51.94
2023-03-28T15:43:37.797Z,50.39
2023-03-28T15:45:44.509Z,52.52
2023-03-28T15:47:48.331Z,50.92
2023-03-28T15:49:51.934Z,51.66
2023-03-28T15:51:57.157Z,52.64
2023-03-28T15:54:00.401Z,51.36
2023-03-28T15:56:08.654Z,51.88
2023-03-28T15:58:14.412Z,51.09
2023-03-28T16:00:39.244Z,51.35
2023-03-28T16:02:44.264Z,51.96
2023-03-28T16:04:58.994Z,51.88
2023-03-28T16:07:10.384Z,51.92
2023-03-28T16:09:17.164Z,50.41
2023-03-28T16:11:23.330Z,52.10
2023-03-28T16:13:45.181Z,51.33
2023-03-28T16:16:07.967Z,52.63
2023-03-28T16:18:38.815Z,50.87
2023-03-28T16:20:42.768Z,51.84
2023-03-28T16:22:46.997Z,49.92
2023-03-28T16:24:50.425Z,51.90
2023-03-28T16:26:53.572Z,49.88
2023-03-28T16:28:56.945Z,49.54
2023-03-28T16:31:00.097Z,50.26
2023-03-28T16:33:03.346Z,49.63
2023-03-28T16:35:10.029Z,50.78
2023-03-28T16:37:13.161Z,48.84
2023-03-28T16:39:16.295Z,50.97
2023-03-28T16:41:19.485Z,49.91
2023-03-28T16:43:22.567Z,49.78
2023-03-28T16:45:25.733Z,50.66
2023-03-28T16:47:29.852Z,50.34
2023-03-28T16:49:33.146Z,49.83
2023-03-28T16:51:37.584Z,49.78
2023-03-28T16:53:41.708Z,49.98
2023-03-28T16:55:45.532Z,50.85
2023-03-28T16:57:49.334Z,52.79
2023-03-28T16:59:54.739Z,51.17
2023-03-28T17:01:57.851Z,50.57
2023-03-28T17:04:01.412Z,51.20
2023-03-28T17:06:05.086Z,51.36
2023-03-28T17:08:10.244Z,50.62
2023-03-28T17:10:13.474Z,52.18
2023-03-28T17:12:16.922Z,51.99
2023-03-28T17:14:20.759Z,52.25
2023-03-28T17:16:24.362Z,53.40
2023-03-28T17:18:28.110Z,52.80
2023-03-28T17:20:31.272Z,52.08
2023-03-28T17:22:34.420Z,52.95
2023-03-28T17:24:38.959Z,52.86
2023-03-28T17:26:42.036Z,52.39
2023-03-28T17:28:45.963Z,53.72
2023-03-28T17:30:49.372Z,53.45
2023-03-28T17:32:52.802Z,54.48
2023-03-28T17:34:55.992Z,54.43
2023-03-28T17:36:59.211Z,53.57
2023-03-28T17:39:02.997Z,53.96
2023-03-28T17:41:08.361Z,54.47
2023-03-28T17:43:11.770Z,53.40
2023-03-28T17:45:15.202Z,54.69
2023-03-28T17:47:18.520Z,55.32
2023-03-28T17:49:22.501Z,55.41
2023-03-28T17:51:26.156Z,56.17
2023-03-28T17:53:29.627Z,56.99
2023-03-28T17:55:32.788Z,57.81
2023-03-28T17:57:37.388Z,58.33
2023-03-28T17:59:40.700Z,58.42
2023-03-28T18:01:43.855Z,58.77
2023-03-28T18:03:47.659Z,58.78
2023-03-28T18:06:08.499Z,58.52
2023-03-28T18:08:11.713Z,58.16
2023-03-28T18:10:15.039Z,59.24
2023-03-28T18:12:18.779Z,60.33
2023-03-28T18:14:23.344Z,60.53
2023-03-28T18:16:27.707Z,60.13
2023-03-28T18:18:30.986Z,60.90
2023-03-28T18:20:34.152Z,60.84
2023-03-28T18:22:38.533Z,59.52
2023-03-28T18:24:41.734Z,60.86
2023-03-28T18:26:45.124Z,60.56
2023-03-28T18:28:48.335Z,60.88
2023-03-28T18:30:53.187Z,60.93
2023-03-28T18:32:56.701Z,61.05
2023-03-28T18:35:00.566Z,61.51
2023-03-28T18:37:05.051Z,61.57
2023-03-28T18:39:10.368Z,62.23
2023-03-28T18:41:15.625Z,61.51
2023-03-28T18:43:18.726Z,62.41
2023-03-28T18:45:21.899Z,61.90
2023-03-28T18:47:26.489Z,63.16
2023-03-28T18:49:29.838Z,63.85
2023-03-28T18:51:33.439Z,62.88
2023-03-28T18:53:38.187Z,63.13
2023-03-28T18:55:42.335Z,62.65
2023-03-28T18:57:45.938Z,63.92
2023-03-28T18:59:52.589Z,62.84
2023-03-28T19:01:55.932Z,62.16
2023-03-28T19:04:00.812Z,61.93
2023-03-28T19:06:04.449Z,61.99
2023-03-28T19:08:07.689Z,61.57
2023-03-28T19:10:12.938Z,61.48
2023-03-28T19:12:16.528Z,60.33
2023-03-28T19:14:19.766Z,60.47
2023-03-28T19:16:22.999Z,60.23
2023-03-28T19:18:26.375Z,61.28
2023-03-28T19:20:31.162Z,61.40
2023-03-28T19:22:35.090Z,61.38
2023-03-28T19:24:38.472Z,62.38
2023-03-28T19:26:41.577Z,62.36
2023-03-28T19:28:44.873Z,63.01
2023-03-28T19:30:48.111Z,62.69
2023-03-28T19:32:51.275Z,62.72
2023-03-28T19:34:54.641Z,62.94
2023-03-28T19:36:59.214Z,62.89
2023-03-28T19:39:03.090Z,62.67
2023-03-28T19:41:10.760Z,62.07
2023-03-28T19:43:17.698Z,64.12
2023-03-28T19:45:20.985Z,63.14
2023-03-28T19:47:24.109Z,63.22
2023-03-28T19:49:27.327Z,62.87
2023-03-28T19:51:30.523Z,61.36
2023-03-28T19:53:35.069Z,62.22
2023-03-28T19:55:38.486Z,63.29
2023-03-28T19:57:41.991Z,64.68
2023-03-28T19:59:45.111Z,64.85
2023-03-28T20:01:48.344Z,66.31
2023-03-28T20:03:53.104Z,66.13
2023-03-28T20:05:56.472Z,65.66
2023-03-28T20:07:59.612Z,64.87
2023-03-28T20:10:04.468Z,64.35
2023-03-28T20:12:07.755Z,63.87
2023-03-28T20:14:17.052Z,63.75
2023-03-28T20:16:20.341Z,63.34
2023-03-28T20:18:24.316Z,63.40
2023-03-28T20:20:27.589Z,63.79
2023-03-28T20:22:34.221Z,64.74
2023-03-28T20:24:37.429Z,65.71
2023-03-28T20:26:42.164Z,63.88
2023-03-28T20:28:46.862Z,62.49
2023-03-28T20:30:49.967Z,62.37
2023-03-28T20:32:53.124Z,62.58
2023-03-28T20:34:56.232Z,62.19
2023-03-28T20:36:59.838Z,62.75
2023-03-28T20:39:03.705Z,64.65
2023-03-28T20:41:10.894Z,62.50
2023-03-28T20:43:19.981Z,62.41
2023-03-28T20:45:23.290Z,62.84
2023-03-28T20:47:28.765Z,62.69
2023-03-28T20:49:32.134Z,62.41
2023-03-28T20:51:39.342Z,62.25
2023-03-28T20:53:44.232Z,60.27
2023-03-28T20:55:48.121Z,61.15
2023-03-28T20:57:51.388Z,60.75
2023-03-28T20:59:58.632Z,62.19
2023-03-28T21:02:02.155Z,64.42
2023-03-28T21:04:05.759Z,67.32
2023-03-28T21:06:09.113Z,68.44
2023-03-28T21:08:15.508Z,69.35
2023-03-28T21:10:19.231Z,67.34
2023-03-28T21:12:22.404Z,65.32
2023-03-28T21:14:25.533Z,65.26
2023-03-28T21:16:31.467Z,64.41
2023-03-28T21:18:37.391Z,63.20
2023-03-28T21:20:40.362Z,64.97
2023-03-28T21:22:43.524Z,67.71
2023-03-28T21:24:49.695Z,65.99
2023-03-28T21:26:52.767Z,66.50
2023-03-28T21:28:56.021Z,67.90
2023-03-28T21:31:00.185Z,67.16
2023-03-28T21:33:05.238Z,67.06
2023-03-28T21:35:09.537Z,67.75
2023-03-28T21:37:13.038Z,67.09
2023-03-28T21:39:16.153Z,69.80
2023-03-28T21:41:19.235Z,69.51
2023-03-28T21:43:22.425Z,69.29
2023-03-28T21:45:25.622Z,70.54
2023-03-28T21:47:28.721Z,70.64
2023-03-28T21:49:33.355Z,69.38
2023-03-28T21:51:36.530Z,69.45
2023-03-28T21:53:39.696Z,69.01
2023-03-28T21:55:43.241Z,69.02
2023-03-28T21:57:46.418Z,67.26
2023-03-28T21:59:49.459Z,66.43
2023-03-28T22:01:52.791Z,63.78
2023-03-28T22:03:56.017Z,64.12
2023-03-28T22:06:00.498Z,65.00
2023-03-28T22:08:04.567Z,65.22
2023-03-28T22:10:08.371Z,65.87
2023-03-28T22:12:11.508Z,64.26
2023-03-28T22:14:14.583Z,64.30
2023-03-28T22:16:17.654Z,63.27
2023-03-28T22:18:21.234Z,63.78
2023-03-28T22:20:26.422Z,63.60
2023-03-28T22:22:30.797Z,63.90
2023-03-28T22:24:34.051Z,66.77
2023-03-28T22:26:37.209Z,68.69
2023-03-28T22:28:40.269Z,68.67
2023-03-28T22:30:43.517Z,66.88
2023-03-28T22:32:46.893Z,67.03
2023-03-28T22:34:51.083Z,69.08
2023-03-28T22:36:54.902Z,69.58
2023-03-28T22:38:59.394Z,70.03
2023-03-28T22:41:02.576Z,69.77
2023-03-28T22:43:05.805Z,69.59
2023-03-28T22:45:10.188Z,68.15
2023-03-28T22:47:13.286Z,68.73
2023-03-28T22:49:22.430Z,68.04
2023-03-28T22:51:28.272Z,68.00
2023-03-28T22:53:31.554Z,68.73
2023-03-28T22:55:36.684Z,66.95
2023-03-28T22:57:41.760Z,67.05
2023-03-28T22:59:44.825Z,66.93
2023-03-28T23:01:48.053Z,67.13
2023-03-28T23:03:51.990Z,66.74
2023-03-28T23:05:55.344Z,65.90
2023-03-28T23:08:00.027Z,65.15
2023-03-28T23:10:03.605Z,64.62
2023-03-28T23:12:09.747Z,66.62
2023-03-28T23:14:13.552Z,68.15
2023-03-28T23:16:17.092Z,68.22
2023-03-28T23:18:20.647Z,68.21
2023-03-28T23:20:24.700Z,69.13
2023-03-28T23:22:27.912Z,69.63
2023-03-28T23:24:31.771Z,69.89
2023-03-28T23:26:34.776Z,69.58
2023-03-28T23:28:39.318Z,68.67
2023-03-28T23:30:42.377Z,68.78
2023-03-28T23:32:45.644Z,70.50
2023-03-28T23:34:48.983Z,71.39
2023-03-28T23:36:52.361Z,71.77
2023-03-28T23:38:55.809Z,71.54
2023-03-28T23:40:58.833Z,73.45
2023-03-28T23:43:01.913Z,73.75
2023-03-28T23:45:07.570Z,73.92
2023-03-28T23:47:12.463Z,74.99
2023-03-28T23:49:15.842Z,76.03
2023-03-28T23:51:18.923Z,75.66
2023-03-28T23:53:22.195Z,76.69
2023-03-28T23:55:25.758Z,77.05
2023-03-28T23:57:29.531Z,77.47
2023-03-28T23:59:32.660Z,78.08
